Liberty Square, Pennsylvania
Current Conditions -  °F | °C
As of 2:53 AM on Thursday 29 Jan 2015 (Local Time) from KLNS Reporting Station
Clear Clear  
Wind Chill:   Ceiling: Unl
Heat Index: 13°   Visibility: 10mi
Dew Point:   Wind: 7mph
Humidity: 65%   Direction: 260°W
Pressure: 30.3"   Gusts: NA
Location:  39.8151°N, 76.2497°W
Report Text: KLNS 290753Z AUTO 26006KT 10SM CLR M11/M16 A3030 RMK AO2 SLP266 T11061161
Loading
Personal Weather Stations






























Interactive Weather Map New forecast layout! Learn more

10-Day Weather Forecast

Advertisements
Track Severe Weather on mobile